sensor_id;sensor_type;location;lat;lon;timestamp;pressure;altitude;pressure_sealevel;temperature
64296;BMP280;51082;38.236;15.432;2023-08-31T00:00:45;101310.81;;;29.34
64296;BMP280;51082;38.236;15.432;2023-08-31T00:01:47;101310.03;;;29.34
64296;BMP280;51082;38.236;15.432;2023-08-31T00:02:49;101304.19;;;29.32
64296;BMP280;51082;38.236;15.432;2023-08-31T00:03:53;101305.78;;;29.33
64296;BMP280;51082;38.236;15.432;2023-08-31T00:04:55;101307.97;;;29.31
64296;BMP280;51082;38.236;15.432;2023-08-31T00:06:02;101305.28;;;29.31
64296;BMP280;51082;38.236;15.432;2023-08-31T00:07:04;101304.81;;;29.29
64296;BMP280;51082;38.236;15.432;2023-08-31T00:08:08;101312.06;;;29.28
64296;BMP280;51082;38.236;15.432;2023-08-31T00:09:09;101313.94;;;29.28
64296;BMP280;51082;38.236;15.432;2023-08-31T00:10:12;101310.16;;;29.29
64296;BMP280;51082;38.236;15.432;2023-08-31T00:11:13;101320.91;;;29.29
64296;BMP280;51082;38.236;15.432;2023-08-31T00:12:17;101319.81;;;29.30
64296;BMP280;51082;38.236;15.432;2023-08-31T00:13:18;101321.69;;;29.29
64296;BMP280;51082;38.236;15.432;2023-08-31T00:14:21;101318.22;;;29.29
64296;BMP280;51082;38.236;15.432;2023-08-31T00:15:23;101306.69;;;29.28
64296;BMP280;51082;38.236;15.432;2023-08-31T00:16:26;101314.75;;;29.28
64296;BMP280;51082;38.236;15.432;2023-08-31T00:17:27;101308.56;;;29.28
64296;BMP280;51082;38.236;15.432;2023-08-31T00:18:30;101305.91;;;29.28
64296;BMP280;51082;38.236;15.432;2023-08-31T00:19:32;101307.03;;;29.27
64296;BMP280;51082;38.236;15.432;2023-08-31T00:20:35;101309.38;;;29.28
64296;BMP280;51082;38.236;15.432;2023-08-31T00:21:36;101312.84;;;29.29
64296;BMP280;51082;38.236;15.432;2023-08-31T00:22:39;101307.03;;;29.27
64296;BMP280;51082;38.236;15.432;2023-08-31T00:23:40;101310.47;;;29.27
64296;BMP280;51082;38.236;15.432;2023-08-31T00:24:43;101311.25;;;29.28
64296;BMP280;51082;38.236;15.432;2023-08-31T00:25:44;101309.72;;;29.27
64296;BMP280;51082;38.236;15.432;2023-08-31T00:26:46;101309.19;;;29.25
64296;BMP280;51082;38.236;15.432;2023-08-31T00:27:52;101314.28;;;29.26
64296;BMP280;51082;38.236;15.432;2023-08-31T00:28:54;101304.94;;;29.24
64296;BMP280;51082;38.236;15.432;2023-08-31T00:29:57;101311.09;;;29.24
64296;BMP280;51082;38.236;15.432;2023-08-31T00:31:00;101310.31;;;29.24
64296;BMP280;51082;38.236;15.432;2023-08-31T00:32:05;101310.31;;;29.24
64296;BMP280;51082;38.236;15.432;2023-08-31T00:33:06;101312.19;;;29.23
64296;BMP280;51082;38.236;15.432;2023-08-31T00:34:09;101306.03;;;29.23
64296;BMP280;51082;38.236;15.432;2023-08-31T00:35:19;101306.84;;;29.23
64296;BMP280;51082;38.236;15.432;2023-08-31T00:36:22;101307.63;;;29.24
64296;BMP280;51082;38.236;15.432;2023-08-31T00:37:24;101311.41;;;29.23
64296;BMP280;51082;38.236;15.432;2023-08-31T00:38:26;101307.13;;;29.21
64296;BMP280;51082;38.236;15.432;2023-08-31T00:39:28;101303.78;;;29.16
64296;BMP280;51082;38.236;15.432;2023-08-31T00:40:30;101310.75;;;29.17
64296;BMP280;51082;38.236;15.432;2023-08-31T00:41:32;101305.06;;;29.18
64296;BMP280;51082;38.236;15.432;2023-08-31T00:42:34;101311.56;;;29.17
64296;BMP280;51082;38.236;15.432;2023-08-31T00:43:36;101308.22;;;29.20
64296;BMP280;51082;38.236;15.432;2023-08-31T00:44:39;101310.44;;;29.18
64296;BMP280;51082;38.236;15.432;2023-08-31T00:45:40;101306.66;;;29.19
64296;BMP280;51082;38.236;15.432;2023-08-31T00:46:43;101306.66;;;29.19
64296;BMP280;51082;38.236;15.432;2023-08-31T00:47:44;101306.00;;;29.14
64296;BMP280;51082;38.236;15.432;2023-08-31T00:48:48;101305.19;;;29.13
64296;BMP280;51082;38.236;15.432;2023-08-31T00:49:50;101307.25;;;29.16
64296;BMP280;51082;38.236;15.432;2023-08-31T00:50:54;101310.44;;;29.18
64296;BMP280;51082;38.236;15.432;2023-08-31T00:51:56;101310.44;;;29.18
64296;BMP280;51082;38.236;15.432;2023-08-31T00:52:58;101315.78;;;29.18
64296;BMP280;51082;38.236;15.432;2023-08-31T00:54:00;101311.22;;;29.19
64296;BMP280;51082;38.236;15.432;2023-08-31T00:55:04;101310.44;;;29.18
64296;BMP280;51082;38.236;15.432;2023-08-31T00:56:07;101315.50;;;29.20
64296;BMP280;51082;38.236;15.432;2023-08-31T00:57:09;101315.78;;;29.18
64296;BMP280;51082;38.236;15.432;2023-08-31T00:58:11;101316.91;;;29.17
64296;BMP280;51082;38.236;15.432;2023-08-31T00:59:13;101319.59;;;29.17
64296;BMP280;51082;38.236;15.432;2023-08-31T01:00:17;101317.97;;;29.16
64296;BMP280;51082;38.236;15.432;2023-08-31T01:01:24;101324.16;;;29.17
64296;BMP280;51082;38.236;15.432;2023-08-31T01:02:34;101330.31;;;29.17
64296;BMP280;51082;38.236;15.432;2023-08-31T01:03:43;101326.84;;;29.17
64296;BMP280;51082;38.236;15.432;2023-08-31T01:04:48;101327.91;;;29.16
64296;BMP280;51082;38.236;15.432;2023-08-31T01:06:01;101339.44;;;29.16
64296;BMP280;51082;38.236;15.432;2023-08-31T01:07:15;101333.00;;;29.17
64296;BMP280;51082;38.236;15.432;2023-08-31T01:08:25;101331.88;;;29.18
64296;BMP280;51082;38.236;15.432;2023-08-31T01:09:34;101331.72;;;29.15
64296;BMP280;51082;38.236;15.432;2023-08-31T01:10:43;101330.31;;;29.17
64296;BMP280;51082;38.236;15.432;2023-08-31T01:11:57;101334.06;;;29.16
64296;BMP280;51082;38.236;15.432;2023-08-31T01:13:02;101325.22;;;29.16
64296;BMP280;51082;38.236;15.432;2023-08-31T01:14:10;101323.34;;;29.16
64296;BMP280;51082;38.236;15.432;2023-08-31T01:15:13;101328.72;;;29.16
64296;BMP280;51082;38.236;15.432;2023-08-31T01:16:17;101328.72;;;29.16
64296;BMP280;51082;38.236;15.432;2023-08-31T01:17:20;101332.50;;;29.15
64296;BMP280;51082;38.236;15.432;2023-08-31T01:18:25;101325.22;;;29.16
64296;BMP280;51082;38.236;15.432;2023-08-31T01:19:40;101329.81;;;29.15
64296;BMP280;51082;38.236;15.432;2023-08-31T01:20:50;101321.00;;;29.15
64296;BMP280;51082;38.236;15.432;2023-08-31T01:21:59;101322.38;;;29.12
64296;BMP280;51082;38.236;15.432;2023-08-31T01:23:06;101331.72;;;29.15
64296;BMP280;51082;38.236;15.432;2023-08-31T01:24:09;101332.50;;;29.15
64296;BMP280;51082;38.236;15.432;2023-08-31T01:25:12;101334.91;;;29.17
64296;BMP280;51082;38.236;15.432;2023-08-31T01:26:14;101332.50;;;29.15
64296;BMP280;51082;38.236;15.432;2023-08-31T01:27:16;101331.72;;;29.15
64296;BMP280;51082;38.236;15.432;2023-08-31T01:28:18;101332.50;;;29.15
64296;BMP280;51082;38.236;15.432;2023-08-31T01:29:21;101342.44;;;29.15
64296;BMP280;51082;38.236;15.432;2023-08-31T01:30:22;101336.28;;;29.14
64296;BMP280;51082;38.236;15.432;2023-08-31T01:31:25;101336.59;;;29.13
64296;BMP280;51082;38.236;15.432;2023-08-31T01:32:26;101335.50;;;29.14
64296;BMP280;51082;38.236;15.432;2023-08-31T01:33:29;101340.06;;;29.13
64296;BMP280;51082;38.236;15.432;2023-08-31T01:34:31;101338.44;;;29.12
64296;BMP280;51082;38.236;15.432;2023-08-31T01:35:36;101338.44;;;29.12
64296;BMP280;51082;38.236;15.432;2023-08-31T01:36:44;101342.75;;;29.13
64296;BMP280;51082;38.236;15.432;2023-08-31T01:37:51;101337.69;;;29.12
64296;BMP280;51082;38.236;15.432;2023-08-31T01:38:57;101331.53;;;29.11
64296;BMP280;51082;38.236;15.432;2023-08-31T01:40:06;101336.28;;;29.14
64296;BMP280;51082;38.236;15.432;2023-08-31T01:41:13;101327.72;;;29.12
64296;BMP280;51082;38.236;15.432;2023-08-31T01:42:18;101330.13;;;29.14
64296;BMP280;51082;38.236;15.432;2023-08-31T01:43:21;101329.81;;;29.15
64296;BMP280;51082;38.236;15.432;2023-08-31T01:44:25;101330.94;;;29.14
64296;BMP280;51082;38.236;15.432;2023-08-31T01:45:27;101339.78;;;29.15
64296;BMP280;51082;38.236;15.432;2023-08-31T01:46:30;101339.78;;;29.15
64296;BMP280;51082;38.236;15.432;2023-08-31T01:47:32;101355.53;;;29.16
64296;BMP280;51082;38.236;15.432;2023-08-31T01:48:38;101347.47;;;29.16
64296;BMP280;51082;38.236;15.432;2023-08-31T01:49:40;101346.69;;;29.16
64296;BMP280;51082;38.236;15.432;2023-08-31T01:50:44;101341.97;;;29.13
64296;BMP280;51082;38.236;15.432;2023-08-31T01:51:45;101340.06;;;29.13
64296;BMP280;51082;38.236;15.432;2023-08-31T01:52:48;101336.91;;;29.11
64296;BMP280;51082;38.236;15.432;2023-08-31T01:53:49;101338.13;;;29.05
64296;BMP280;51082;38.236;15.432;2023-08-31T01:54:52;101332.97;;;29.09
64296;BMP280;51082;38.236;15.432;2023-08-31T01:55:55;101329.94;;;29.10
64296;BMP280;51082;38.236;15.432;2023-08-31T01:56:58;101336.09;;;29.11
64296;BMP280;51082;38.236;15.432;2023-08-31T01:57:59;101331.53;;;29.11
64296;BMP280;51082;38.236;15.432;2023-08-31T01:59:02;101327.25;;;29.10
64296;BMP280;51082;38.236;15.432;2023-08-31T02:00:04;101332.31;;;29.12
64296;BMP280;51082;38.236;15.432;2023-08-31T02:01:07;101331.53;;;29.11
64296;BMP280;51082;38.236;15.432;2023-08-31T02:02:08;101336.91;;;29.11
64296;BMP280;51082;38.236;15.432;2023-08-31T02:03:11;101330.75;;;29.11
64296;BMP280;51082;38.236;15.432;2023-08-31T02:04:12;101329.94;;;29.10
64296;BMP280;51082;38.236;15.432;2023-08-31T02:05:14;101327.59;;;29.09
64296;BMP280;51082;38.236;15.432;2023-08-31T02:06:16;101335.91;;;29.07
64296;BMP280;51082;38.236;15.432;2023-08-31T02:07:18;101329.75;;;29.07
64296;BMP280;51082;38.236;15.432;2023-08-31T02:08:20;101325.03;;;29.04
64296;BMP280;51082;38.236;15.432;2023-08-31T02:09:22;101336.53;;;29.04
64296;BMP280;51082;38.236;15.432;2023-08-31T02:10:24;101331.19;;;29.04
64296;BMP280;51082;38.236;15.432;2023-08-31T02:11:28;101327.06;;;29.07
64296;BMP280;51082;38.236;15.432;2023-08-31T02:12:32;101333.22;;;29.07
64296;BMP280;51082;38.236;15.432;2023-08-31T02:13:34;101334.66;;;29.05
64296;BMP280;51082;38.236;15.432;2023-08-31T02:14:36;101335.13;;;29.07
64296;BMP280;51082;38.236;15.432;2023-08-31T02:15:39;101329.75;;;29.07
64296;BMP280;51082;38.236;15.432;2023-08-31T02:16:41;101330.53;;;29.07
64296;BMP280;51082;38.236;15.432;2023-08-31T02:17:43;101330.88;;;29.06
64296;BMP280;51082;38.236;15.432;2023-08-31T02:18:45;101333.22;;;29.07
64296;BMP280;51082;38.236;15.432;2023-08-31T02:19:47;101337.53;;;29.08
64296;BMP280;51082;38.236;15.432;2023-08-31T02:20:52;101336.69;;;29.08
64296;BMP280;51082;38.236;15.432;2023-08-31T02:21:54;101326.81;;;29.08
64296;BMP280;51082;38.236;15.432;2023-08-31T02:22:56;101336.41;;;29.09
64296;BMP280;51082;38.236;15.432;2023-08-31T02:23:58;101339.09;;;29.09
64296;BMP280;51082;38.236;15.432;2023-08-31T02:25:00;101337.53;;;29.08
64296;BMP280;51082;38.236;15.432;2023-08-31T02:26:02;101330.53;;;29.07
64296;BMP280;51082;38.236;15.432;2023-08-31T02:27:06;101332.44;;;29.07
64296;BMP280;51082;38.236;15.432;2023-08-31T02:28:07;101335.13;;;29.07
64296;BMP280;51082;38.236;15.432;2023-08-31T02:29:10;101329.00;;;29.06
64296;BMP280;51082;38.236;15.432;2023-08-31T02:30:12;101333.22;;;29.07
64296;BMP280;51082;38.236;15.432;2023-08-31T02:31:17;101337.34;;;29.05
64296;BMP280;51082;38.236;15.432;2023-08-31T02:32:18;101337.78;;;29.07
64296;BMP280;51082;38.236;15.432;2023-08-31T02:33:20;101330.88;;;29.06
64296;BMP280;51082;38.236;15.432;2023-08-31T02:34:22;101342.69;;;29.05
64296;BMP280;51082;38.236;15.432;2023-08-31T02:35:23;101346.47;;;29.04
64296;BMP280;51082;38.236;15.432;2023-08-31T02:36:26;101338.72;;;29.02
64296;BMP280;51082;38.236;15.432;2023-08-31T02:37:27;101342.03;;;28.99
64296;BMP280;51082;38.236;15.432;2023-08-31T02:38:30;101338.53;;;28.99
64296;BMP280;51082;38.236;15.432;2023-08-31T02:39:31;101338.53;;;28.99
64296;BMP280;51082;38.236;15.432;2023-08-31T02:40:34;101337.75;;;28.98
64296;BMP280;51082;38.236;15.432;2023-08-31T02:41:35;101344.72;;;28.99
64296;BMP280;51082;38.236;15.432;2023-08-31T02:42:39;101343.63;;;29.00
64296;BMP280;51082;38.236;15.432;2023-08-31T02:43:41;101346.13;;;28.97
64296;BMP280;51082;38.236;15.432;2023-08-31T02:44:43;101344.22;;;28.97
64296;BMP280;51082;38.236;15.432;2023-08-31T02:45:45;101344.72;;;28.99
64296;BMP280;51082;38.236;15.432;2023-08-31T02:46:47;101345.97;;;29.02
64296;BMP280;51082;38.236;15.432;2023-08-31T02:47:49;101347.88;;;29.01
64296;BMP280;51082;38.236;15.432;2023-08-31T02:48:51;101347.88;;;29.01
64296;BMP280;51082;38.236;15.432;2023-08-31T02:49:53;101343.31;;;29.02
64296;BMP280;51082;38.236;15.432;2023-08-31T02:50:56;101350.09;;;28.99
64296;BMP280;51082;38.236;15.432;2023-08-31T02:51:58;101352.28;;;28.97
64296;BMP280;51082;38.236;15.432;2023-08-31T02:53:01;101353.81;;;28.98
64296;BMP280;51082;38.236;15.432;2023-08-31T02:54:02;101353.81;;;28.98
64296;BMP280;51082;38.236;15.432;2023-08-31T02:55:06;101359.19;;;28.98
64296;BMP280;51082;38.236;15.432;2023-08-31T02:56:08;101357.03;;;29.00
64296;BMP280;51082;38.236;15.432;2023-08-31T02:57:10;101362.88;;;29.02
64296;BMP280;51082;38.236;15.432;2023-08-31T02:58:13;101365.25;;;29.04
64296;BMP280;51082;38.236;15.432;2023-08-31T02:59:16;101368.72;;;29.04
64296;BMP280;51082;38.236;15.432;2023-08-31T03:00:18;101366.84;;;29.05
64296;BMP280;51082;38.236;15.432;2023-08-31T03:01:22;101368.72;;;29.04
64296;BMP280;51082;38.236;15.432;2023-08-31T03:02:25;101357.50;;;29.02
64296;BMP280;51082;38.236;15.432;2023-08-31T03:03:27;101360.19;;;29.02
64296;BMP280;51082;38.236;15.432;2023-08-31T03:04:29;101355.44;;;28.99
64296;BMP280;51082;38.236;15.432;2023-08-31T03:05:31;101352.78;;;28.99
64296;BMP280;51082;38.236;15.432;2023-08-31T03:06:33;101360.00;;;28.99
64296;BMP280;51082;38.236;15.432;2023-08-31T03:07:35;101358.72;;;28.96
64296;BMP280;51082;38.236;15.432;2023-08-31T03:08:37;101360.13;;;28.94
64296;BMP280;51082;38.236;15.432;2023-08-31T03:09:40;101362.63;;;28.90
64296;BMP280;51082;38.236;15.432;2023-08-31T03:10:42;101370.69;;;28.90
64296;BMP280;51082;38.236;15.432;2023-08-31T03:11:45;101358.88;;;28.91
64296;BMP280;51082;38.236;15.432;2023-08-31T03:12:46;101353.50;;;28.91
64296;BMP280;51082;38.236;15.432;2023-08-31T03:13:49;101357.28;;;28.90
64296;BMP280;51082;38.236;15.432;2023-08-31T03:14:52;101360.41;;;28.92
64296;BMP280;51082;38.236;15.432;2023-08-31T03:15:53;101358.06;;;28.91
64296;BMP280;51082;38.236;15.432;2023-08-31T03:16:57;101356.19;;;28.91
64296;BMP280;51082;38.236;15.432;2023-08-31T03:17:58;101359.31;;;28.93
64296;BMP280;51082;38.236;15.432;2023-08-31T03:19:00;101367.38;;;28.93
64296;BMP280;51082;38.236;15.432;2023-08-31T03:20:03;101365.19;;;28.95
64296;BMP280;51082;38.236;15.432;2023-08-31T03:21:05;101362.81;;;28.94
64296;BMP280;51082;38.236;15.432;2023-08-31T03:22:08;101362.50;;;28.95
64296;BMP280;51082;38.236;15.432;2023-08-31T03:23:10;101370.84;;;28.94
64296;BMP280;51082;38.236;15.432;2023-08-31T03:24:12;101366.13;;;28.91
64296;BMP280;51082;38.236;15.432;2023-08-31T03:25:14;101380.91;;;28.88
64296;BMP280;51082;38.236;15.432;2023-08-31T03:26:16;101381.88;;;28.92
64296;BMP280;51082;38.236;15.432;2023-08-31T03:27:18;101370.06;;;28.93
64296;BMP280;51082;38.236;15.432;2023-08-31T03:28:21;101369.59;;;28.91
64296;BMP280;51082;38.236;15.432;2023-08-31T03:29:24;101377.63;;;28.91
64296;BMP280;51082;38.236;15.432;2023-08-31T03:30:26;101374.94;;;28.91
64296;BMP280;51082;38.236;15.432;2023-08-31T03:31:29;101369.59;;;28.91
64296;BMP280;51082;38.236;15.432;2023-08-31T03:32:32;101374.44;;;28.89
64296;BMP280;51082;38.236;15.432;2023-08-31T03:33:33;101372.53;;;28.90
64296;BMP280;51082;38.236;15.432;2023-08-31T03:34:36;101373.16;;;28.87
64296;BMP280;51082;38.236;15.432;2023-08-31T03:35:37;101377.22;;;28.84
64296;BMP280;51082;38.236;15.432;2023-08-31T03:36:40;101379.91;;;28.84
64296;BMP280;51082;38.236;15.432;2023-08-31T03:37:42;101379.13;;;28.83
64296;BMP280;51082;38.236;15.432;2023-08-31T03:38:44;101373.28;;;28.81
64296;BMP280;51082;38.236;15.432;2023-08-31T03:39:47;101375.66;;;28.83
64296;BMP280;51082;38.236;15.432;2023-08-31T03:40:53;101375.16;;;28.81
64296;BMP280;51082;38.236;15.432;2023-08-31T03:41:55;101391.22;;;28.81
64296;BMP280;51082;38.236;15.432;2023-08-31T03:42:58;101385.09;;;28.80
64296;BMP280;51082;38.236;15.432;2023-08-31T03:43:59;101377.53;;;28.82
64296;BMP280;51082;38.236;15.432;2023-08-31T03:45:04;101378.31;;;28.83
64296;BMP280;51082;38.236;15.432;2023-08-31T03:46:06;101385.09;;;28.80
64296;BMP280;51082;38.236;15.432;2023-08-31T03:47:08;101381.34;;;28.81
64296;BMP280;51082;38.236;15.432;2023-08-31T03:48:10;101383.19;;;28.81
64296;BMP280;51082;38.236;15.432;2023-08-31T03:49:12;101385.88;;;28.81
64296;BMP280;51082;38.236;15.432;2023-08-31T03:50:14;101386.97;;;28.80
64296;BMP280;51082;38.236;15.432;2023-08-31T03:51:16;101388.09;;;28.79
64296;BMP280;51082;38.236;15.432;2023-08-31T03:52:18;101389.47;;;28.76
64296;BMP280;51082;38.236;15.432;2023-08-31T03:53:20;101389.97;;;28.78
64296;BMP280;51082;38.236;15.432;2023-08-31T03:54:21;101390.44;;;28.80
64296;BMP280;51082;38.236;15.432;2023-08-31T03:55:24;101387.28;;;28.78
64296;BMP280;51082;38.236;15.432;2023-08-31T03:56:26;101386.50;;;28.78
64296;BMP280;51082;38.236;15.432;2023-08-31T03:57:28;101381.13;;;28.78
64296;BMP280;51082;38.236;15.432;2023-08-31T03:58:30;101377.84;;;28.81
64296;BMP280;51082;38.236;15.432;2023-08-31T03:59:32;101383.69;;;28.83
64296;BMP280;51082;38.236;15.432;2023-08-31T04:00:36;101384.81;;;28.82
64296;BMP280;51082;38.236;15.432;2023-08-31T04:01:38;101382.91;;;28.82
64296;BMP280;51082;38.236;15.432;2023-08-31T04:02:42;101384.03;;;28.81
64296;BMP280;51082;38.236;15.432;2023-08-31T04:03:44;101389.06;;;28.83
64296;BMP280;51082;38.236;15.432;2023-08-31T04:04:46;101385.28;;;28.84
64296;BMP280;51082;38.236;15.432;2023-08-31T04:05:48;101388.25;;;28.82
64296;BMP280;51082;38.236;15.432;2023-08-31T04:06:54;101395.22;;;28.83
64296;BMP280;51082;38.236;15.432;2023-08-31T04:07:57;101391.22;;;28.81
64296;BMP280;51082;38.236;15.432;2023-08-31T04:08:58;101391.84;;;28.78
64296;BMP280;51082;38.236;15.432;2023-08-31T04:10:01;101399.41;;;28.76
64296;BMP280;51082;38.236;15.432;2023-08-31T04:11:02;101387.88;;;28.75
64296;BMP280;51082;38.236;15.432;2023-08-31T04:12:04;101394.34;;;28.74
64296;BMP280;51082;38.236;15.432;2023-08-31T04:13:07;101395.44;;;28.73
64296;BMP280;51082;38.236;15.432;2023-08-31T04:14:08;101399.09;;;28.77
64296;BMP280;51082;38.236;15.432;2023-08-31T04:15:10;101396.22;;;28.74
64296;BMP280;51082;38.236;15.432;2023-08-31T04:16:16;101396.22;;;28.74
64296;BMP280;51082;38.236;15.432;2023-08-31T04:17:18;101401.59;;;28.74
64296;BMP280;51082;38.236;15.432;2023-08-31T04:18:20;101394.34;;;28.74
64296;BMP280;51082;38.236;15.432;2023-08-31T04:19:22;101406.16;;;28.73
64296;BMP280;51082;38.236;15.432;2023-08-31T04:20:25;101403.19;;;28.75
64296;BMP280;51082;38.236;15.432;2023-08-31T04:21:26;101406.94;;;28.74
64296;BMP280;51082;38.236;15.432;2023-08-31T04:22:28;101406.94;;;28.74
64296;BMP280;51082;38.236;15.432;2023-08-31T04:23:30;101409.13;;;28.72
64296;BMP280;51082;38.236;15.432;2023-08-31T04:24:33;101410.75;;;28.73
64296;BMP280;51082;38.236;15.432;2023-08-31T04:25:35;101415.31;;;28.72
64296;BMP280;51082;38.236;15.432;2023-08-31T04:26:37;101409.13;;;28.72
64296;BMP280;51082;38.236;15.432;2023-08-31T04:27:39;101404.41;;;28.69
64296;BMP280;51082;38.236;15.432;2023-08-31T04:28:41;101412.91;;;28.71
64296;BMP280;51082;38.236;15.432;2023-08-31T04:29:43;101410.75;;;28.73
64296;BMP280;51082;38.236;15.432;2023-08-31T04:30:45;101415.31;;;28.72
64296;BMP280;51082;38.236;15.432;2023-08-31T04:31:49;101409.34;;;28.75
64296;BMP280;51082;38.236;15.432;2023-08-31T04:32:50;101410.13;;;28.76
64296;BMP280;51082;38.236;15.432;2023-08-31T04:33:53;101415.78;;;28.74
64296;BMP280;51082;38.236;15.432;2023-08-31T04:34:54;101417.66;;;28.74
64296;BMP280;51082;38.236;15.432;2023-08-31T04:35:57;101416.38;;;28.71
64296;BMP280;51082;38.236;15.432;2023-08-31T04:36:58;101412.91;;;28.71
64296;BMP280;51082;38.236;15.432;2023-08-31T04:38:00;101423.63;;;28.71
64296;BMP280;51082;38.236;15.432;2023-08-31T04:39:02;101412.13;;;28.70
64296;BMP280;51082;38.236;15.432;2023-08-31T04:40:05;101420.19;;;28.70
64296;BMP280;51082;38.236;15.432;2023-08-31T04:41:09;101410.56;;;28.69
64296;BMP280;51082;38.236;15.432;2023-08-31T04:42:11;101420.47;;;28.69
64296;BMP280;51082;38.236;15.432;2023-08-31T04:43:13;101418.59;;;28.69
64296;BMP280;51082;38.236;15.432;2023-08-31T04:44:15;101417.78;;;28.69
64296;BMP280;51082;38.236;15.432;2023-08-31T04:45:18;101421.28;;;28.69
64296;BMP280;51082;38.236;15.432;2023-08-31T04:46:19;101422.38;;;28.68
64296;BMP280;51082;38.236;15.432;2023-08-31T04:47:23;101421.56;;;28.68
64296;BMP280;51082;38.236;15.432;2023-08-31T04:48:25;101417.28;;;28.67
64296;BMP280;51082;38.236;15.432;2023-08-31T04:49:28;101420.47;;;28.69
64296;BMP280;51082;38.236;15.432;2023-08-31T04:50:29;101424.25;;;28.68
64296;BMP280;51082;38.236;15.432;2023-08-31T04:51:34;101422.66;;;28.67
64296;BMP280;51082;38.236;15.432;2023-08-31T04:52:35;101425.84;;;28.69
64296;BMP280;51082;38.236;15.432;2023-08-31T04:53:38;101429.59;;;28.68
64296;BMP280;51082;38.236;15.432;2023-08-31T04:54:39;101428.03;;;28.67
64296;BMP280;51082;38.236;15.432;2023-08-31T04:55:42;101433.66;;;28.65
64296;BMP280;51082;38.236;15.432;2023-08-31T04:56:43;101422.16;;;28.65
64296;BMP280;51082;38.236;15.432;2023-08-31T04:57:46;101426.44;;;28.66
64296;BMP280;51082;38.236;15.432;2023-08-31T04:58:47;101430.41;;;28.68
64296;BMP280;51082;38.236;15.432;2023-08-31T04:59:50;101427.22;;;28.66
64296;BMP280;51082;38.236;15.432;2023-08-31T05:00:51;101429.09;;;28.66
64296;BMP280;51082;38.236;15.432;2023-08-31T05:01:54;101429.09;;;28.66
64296;BMP280;51082;38.236;15.432;2023-08-31T05:02:57;101435.75;;;28.68
64296;BMP280;51082;38.236;15.432;2023-08-31T05:04:00;101431.19;;;28.69
64296;BMP280;51082;38.236;15.432;2023-08-31T05:05:01;101429.59;;;28.68
64296;BMP280;51082;38.236;15.432;2023-08-31T05:06:04;101433.38;;;28.67
64296;BMP280;51082;38.236;15.432;2023-08-31T05:07:06;101429.59;;;28.68
64296;BMP280;51082;38.236;15.432;2023-08-31T05:08:08;101436.56;;;28.69
64296;BMP280;51082;38.236;15.432;2023-08-31T05:09:10;101436.06;;;28.67
64296;BMP280;51082;38.236;15.432;2023-08-31T05:10:12;101432.78;;;28.70
64296;BMP280;51082;38.236;15.432;2023-08-31T05:11:14;101441.91;;;28.69
64296;BMP280;51082;38.236;15.432;2023-08-31T05:12:17;101430.41;;;28.68
64296;BMP280;51082;38.236;15.432;2023-08-31T05:13:18;101440.31;;;28.68
64296;BMP280;51082;38.236;15.432;2023-08-31T05:14:20;101442.50;;;28.66
64296;BMP280;51082;38.236;15.432;2023-08-31T05:15:22;101432.59;;;28.66
64296;BMP280;51082;38.236;15.432;2023-08-31T05:16:24;101440.31;;;28.68
64296;BMP280;51082;38.236;15.432;2023-08-31T05:17:26;101440.03;;;28.69
64296;BMP280;51082;38.236;15.432;2023-08-31T05:18:29;101441.13;;;28.68
64296;BMP280;51082;38.236;15.432;2023-08-31T05:19:31;101443.50;;;28.70
64296;BMP280;51082;38.236;15.432;2023-08-31T05:20:33;101441.91;;;28.69
64296;BMP280;51082;38.236;15.432;2023-08-31T05:21:35;101440.03;;;28.69
64296;BMP280;51082;38.236;15.432;2023-08-31T05:22:37;101442.72;;;28.69
64296;BMP280;51082;38.236;15.432;2023-08-31T05:23:39;101451.06;;;28.68
64296;BMP280;51082;38.236;15.432;2023-08-31T05:24:41;101449.66;;;28.70
64296;BMP280;51082;38.236;15.432;2023-08-31T05:25:43;101448.88;;;28.70
64296;BMP280;51082;38.236;15.432;2023-08-31T05:26:45;101446.19;;;28.70
64296;BMP280;51082;38.236;15.432;2023-08-31T05:27:47;101446.19;;;28.70
64296;BMP280;51082;38.236;15.432;2023-08-31T05:28:49;101448.88;;;28.70
64296;BMP280;51082;38.236;15.432;2023-08-31T05:29:51;101447.75;;;28.71
64296;BMP280;51082;38.236;15.432;2023-08-31T05:30:55;101454.22;;;28.70
64296;BMP280;51082;38.236;15.432;2023-08-31T05:31:58;101445.41;;;28.69
64296;BMP280;51082;38.236;15.432;2023-08-31T05:32:59;101447.47;;;28.72
64296;BMP280;51082;38.236;15.432;2023-08-31T05:34:03;101448.75;;;28.75
64296;BMP280;51082;38.236;15.432;2023-08-31T05:35:05;101449.34;;;28.72
64296;BMP280;51082;38.236;15.432;2023-08-31T05:36:08;101458.47;;;28.71
64296;BMP280;51082;38.236;15.432;2023-08-31T05:37:10;101452.84;;;28.72
64296;BMP280;51082;38.236;15.432;2023-08-31T05:38:13;101455.78;;;28.71
64296;BMP280;51082;38.236;15.432;2023-08-31T05:39:14;101461.94;;;28.71
64296;BMP280;51082;38.236;15.432;2023-08-31T05:40:18;101460.38;;;28.70
64296;BMP280;51082;38.236;15.432;2023-08-31T05:41:19;101467.31;;;28.71
64296;BMP280;51082;38.236;15.432;2023-08-31T05:42:22;101461.16;;;28.71
64296;BMP280;51082;38.236;15.432;2023-08-31T05:43:23;101470.69;;;28.77
64296;BMP280;51082;38.236;15.432;2023-08-31T05:44:26;101470.69;;;28.77
64296;BMP280;51082;38.236;15.432;2023-08-31T05:45:27;101467.13;;;28.81
64296;BMP280;51082;38.236;15.432;2023-08-31T05:46:30;101472.16;;;28.83
64296;BMP280;51082;38.236;15.432;2023-08-31T05:47:31;101469.97;;;28.85
64296;BMP280;51082;38.236;15.432;2023-08-31T05:48:34;101473.16;;;28.87
64296;BMP280;51082;38.236;15.432;2023-08-31T05:49:37;101480.41;;;28.87
64296;BMP280;51082;38.236;15.432;2023-08-31T05:50:39;101487.38;;;28.88
64296;BMP280;51082;38.236;15.432;2023-08-31T05:51:41;101476.94;;;28.86